Time;durP1;ratioP1;P1;durP2;ratioP2;P2;SDS_P1;SDS_P2;PMS_P1;PMS_P2;Temp;Humidity;BMP_temperature;BMP_pressure;BME280_temperature;BME280_humidity;BME280_pressure;Samples;Min_cycle;Max_cycle;Signal;HPM_P1;HPM_P2
2021/09/24 00:02:54;;;;;;;;;;;;;;;;;;10261431;28;19918;-65
2021/09/24 00:07:52;;;;;;;;;;;;;;;;;;10277718;28;19928;-66
2021/09/24 00:12:49;;;;;;;;;;;;;;;;;;10276700;28;19927;-66
2021/09/24 00:17:46;;;;;;;;;;;;;;;;;;10269255;28;20247;-67
2021/09/24 00:22:44;;;;;;;;;;;;;;;;;;10276456;28;20430;-67
2021/09/24 00:27:41;;;;;;;;;;;;;;;;;;10281314;28;20662;-66
2021/09/24 00:32:38;;;;;;;;;;;;;;;;;;10260632;28;19925;-66
2021/09/24 00:37:36;;;;;;;;;;;;;;;;;;10277742;28;19933;-66
2021/09/24 00:42:33;;;;;;;;;;;;;;;;;;10268194;28;20255;-66
2021/09/24 00:47:30;;;;;;;;;;;;;;;;;;10291243;28;20403;-66
2021/09/24 00:52:28;;;;;;;;;;;;;;;;;;10280924;28;20275;-67
2021/09/24 00:57:25;;;;;;;;;;;;;;;;;;10259366;28;19932;-66
2021/09/24 01:02:23;;;;;;;;;;;;;;;;;;10275299;28;19969;-67
2021/09/24 01:07:20;;;;;;;;;;;;;;;;;;10277767;28;19925;-68
2021/09/24 01:12:17;;;;;;;;;;;;;;;;;;10283208;28;19951;-67
2021/09/24 01:17:14;;;;;;;;;;;;;;;;;;10286409;28;19933;-66
2021/09/24 01:22:12;;;;;;;;;;;;;;;;;;10292650;28;19921;-69
2021/09/24 01:27:09;;;;;;;;;;;;;;;;;;10292403;28;20351;-66
2021/09/24 01:32:06;;;;;;;;;;;;;;;;;;10284209;28;19933;-65
2021/09/24 01:37:04;;;;;;;;;;;;;;;;;;10271534;28;20278;-66
2021/09/24 01:42:01;;;;;;;;;;;;;;;;;;10293716;28;19925;-66
2021/09/24 01:46:58;;;;;;;;;;;;;;;;;;10286025;28;20517;-66
2021/09/24 01:51:55;;;;;;;;;;;;;;;;;;10265471;28;19917;-68
2021/09/24 01:56:53;;;;;;;;;;;;;;;;;;10275424;28;19921;-66
2021/09/24 02:01:50;;;;;;;;;;;;;;;;;;10244099;28;20335;-66
2021/09/24 02:06:47;;;;;;;;;;;;;;;;;;10273433;28;19917;-66
2021/09/24 02:11:45;;;;;;;;;;;;;;;;;;10281555;28;19921;-67
2021/09/24 02:16:42;;;;;;;;;;;;;;;;;;10281191;28;19921;-67
2021/09/24 02:21:39;;;;;;;;;;;;;;;;;;10270225;28;19937;-67
2021/09/24 02:26:36;;;;;;;;;;;;;;;;;;10275324;28;19918;-66
2021/09/24 02:31:34;;;;;;;;;;;;;;;;;;10279123;28;20135;-66
2021/09/24 02:36:31;;;;;;;;;;;;;;;;;;10290964;28;19921;-65
2021/09/24 02:41:28;;;;;;;;;;;;;;;;;;10270343;28;19933;-69
2021/09/24 02:46:26;;;;;;;;;;;;;;;;;;10275587;28;19939;-65
2021/09/24 02:51:23;;;;;;;;;;;;;;;;;;10270862;28;19967;-68
2021/09/24 02:56:20;;;;;;;;;;;;;;;;;;10277731;28;19947;-66
2021/09/24 03:01:18;;;;;;;;;;;;;;;;;;10293276;28;20398;-67
2021/09/24 03:06:15;;;;;;;;;;;;;;;;;;10299312;28;19917;-65
2021/09/24 03:11:12;;;;;;;;;;;;;;;;;;10300560;28;19913;-69
2021/09/24 03:16:09;;;;;;;;;;;;;;;;;;10300092;28;20298;-65
2021/09/24 03:21:07;;;;;;;;;;;;;;;;;;10301214;28;19972;-69
2021/09/24 03:26:04;;;;;;;;;;;;;;;;;;10300112;28;19917;-66
2021/09/24 03:31:01;;;;;;;;;;;;;;;;;;10299653;28;20327;-69
2021/09/24 03:35:58;;;;;;;;;;;;;;;;;;10296585;28;19925;-66
2021/09/24 03:40:56;;;;;;;;;;;;;;;;;;10302569;28;20013;-68
2021/09/24 03:45:53;;;;;;;;;;;;;;;;;;10297782;28;19970;-65
2021/09/24 03:50:50;;;;;;;;;;;;;;;;;;10297945;28;19928;-67
2021/09/24 03:55:52;;;;;;;;;;;;;;;;;;10280949;28;20021;-66
2021/09/24 04:00:49;;;;;;;;;;;;;;;;;;10299497;28;19913;-66
2021/09/24 04:05:47;;;;;;;;;;;;;;;;;;10299420;28;19943;-65
2021/09/24 04:10:44;;;;;;;;;;;;;;;;;;10294318;28;19913;-65
2021/09/24 04:15:41;;;;;;;;;;;;;;;;;;10295978;28;19928;-65
2021/09/24 04:20:39;;;;;;;;;;;;;;;;;;10296652;28;19917;-65
2021/09/24 04:25:36;;;;;;;;;;;;;;;;;;10281226;28;19933;-65
2021/09/24 04:30:33;;;;;;;;;;;;;;;;;;10294941;28;19968;-66
2021/09/24 04:35:31;;;;;;;;;;;;;;;;;;10291808;28;22136;-66
2021/09/24 04:40:29;;;;;;;;;;;;;;;;;;10272396;28;19925;-67
2021/09/24 04:45:27;;;;;;;;;;;;;;;;;;10279465;28;20362;-66
2021/09/24 04:50:24;;;;;;;;;;;;;;;;;;10272702;28;20317;-66
2021/09/24 04:55:22;;;;;;;;;;;;;;;;;;10283173;28;19924;-69
2021/09/24 05:00:19;;;;;;;;;;;;;;;;;;10279903;28;19921;-65
2021/09/24 05:05:16;;;;;;;;;;;;;;;;;;10286258;28;19946;-68
2021/09/24 05:10:14;;;;;;;;;;;;;;;;;;10280544;28;19918;-65
2021/09/24 05:15:11;;;;;;;;;;;;;;;;;;10279047;28;20021;-68
2021/09/24 05:20:08;;;;;;;;;;;;;;;;;;10281346;28;19917;-66
2021/09/24 05:25:06;;;;;;;;;;;;;;;;;;10280269;28;19976;-67
2021/09/24 05:30:03;;;;;;;;;;;;;;;;;;10282681;28;19985;-65
2021/09/24 05:35:00;;;;;;;;;;;;;;;;;;10279550;28;20331;-68
2021/09/24 05:39:57;;;;;;;;;;;;;;;;;;10279282;28;19917;-64
2021/09/24 05:44:55;;;;;;;;;;;;;;;;;;10275386;28;19920;-68
2021/09/24 05:49:52;;;;;;;;;;;;;;;;;;10272166;28;19924;-66
2021/09/24 05:54:50;;;;;;;;;;;;;;;;;;10272160;28;19925;-66
2021/09/24 05:59:47;;;;;;;;;;;;;;;;;;10269423;28;20380;-65
2021/09/24 06:04:44;;;;;;;;;;;;;;;;;;10278420;28;19917;-65
2021/09/24 06:09:41;;;;;;;;;;;;;;;;;;10272264;28;19923;-70
2021/09/24 06:14:39;;;;;;;;;;;;;;;;;;10277000;28;19943;-67
2021/09/24 06:19:36;;;;;;;;;;;;;;;;;;10272916;28;19929;-66
2021/09/24 06:24:33;;;;;;;;;;;;;;;;;;10282234;28;19913;-66
2021/09/24 06:29:31;;;;;;;;;;;;;;;;;;10274726;28;20359;-65
2021/09/24 06:34:28;;;;;;;;;;;;;;;;;;10279643;28;19928;-65
2021/09/24 06:39:25;;;;;;;;;;;;;;;;;;10275469;28;19916;-65
2021/09/24 06:44:22;;;;;;;;;;;;;;;;;;10282857;28;19921;-67
2021/09/24 06:49:22;;;;;;;;;;;;;;;;;;10277278;28;19917;-65
2021/09/24 06:54:19;;;;;;;;;;;;;;;;;;10278582;28;19932;-65
2021/09/24 06:59:17;;;;;;;;;;;;;;;;;;10280304;28;20101;-68
2021/09/24 07:04:14;;;;;;;;;;;;;;;;;;10282486;28;20718;-66
2021/09/24 07:10:21;;;;;;;4.28;1.75;;;;;;;;;;10328022;27;2044527;-64
2021/09/24 07:15:19;;;;;;;8.33;2.27;;;;;;;;;;10260478;28;20026;-64
2021/09/24 07:20:16;;;;;;;9.13;2.00;;;;;;;;;;10291626;28;20398;-64
2021/09/24 07:25:14;;;;;;;7.00;2.20;;;;;;;;;;10296601;28;20525;-63
2021/09/24 07:30:12;;;;;;;5.60;1.97;;;;;;;;;;10291588;28;20124;-64
2021/09/24 07:35:09;;;;;;;3.70;1.60;;;;;;;;;;10300867;28;20042;-64
2021/09/24 07:40:07;;;;;;;4.30;1.57;;;;;;;;;;10302428;28;20041;-61
2021/09/24 07:45:06;;;;;;;3.13;1.70;;;;;;;;;;10290563;28;20513;-66
2021/09/24 07:50:04;;;;;;;9.65;1.70;;;;;;;;;;10246379;28;20076;-65
2021/09/24 07:55:01;;;;;;;6.17;1.40;;;;;;;;;;10261247;28;20607;-64
2021/09/24 07:59:59;;;;;;;3.03;1.30;;;;;;;;;;10261980;28;20042;-63
2021/09/24 08:04:57;;;;;;;9.43;1.27;;;;;;;;;;10264795;28;20045;-63
2021/09/24 08:09:54;;;;;;;3.70;1.33;;;;;;;;;;10259369;28;20061;-61
2021/09/24 08:14:52;;;;;;;4.23;1.57;;;;;;;;;;10263524;28;20026;-63
2021/09/24 08:19:49;;;;;;;2.90;1.67;;;;;;;;;;10216568;28;20049;-64
2021/09/24 08:24:47;;;;;;;4.07;1.23;;;;;;;;;;10230648;28;20037;-65
2021/09/24 08:29:44;;;;;;;4.40;1.50;;;;;;;;;;10245027;28;20038;-63
2021/09/24 08:34:41;;;;;;;3.30;1.10;;;;;;;;;;10266563;28;20034;-63
2021/09/24 08:39:39;;;;;;;7.23;1.63;;;;;;;;;;10263360;28;20021;-62
2021/09/24 08:44:36;;;;;;;2.90;1.53;;;;;;;;;;10275910;28;20076;-63
2021/09/24 08:49:34;;;;;;;4.17;1.63;;;;;;;;;;10266511;28;20033;-62
2021/09/24 08:54:31;;;;;;;3.90;1.30;;;;;;;;;;10260919;28;20026;-64
2021/09/24 08:59:29;;;;;;;1.90;1.17;;;;;;;;;;10283856;28;20021;-63
2021/09/24 09:04:34;;;;;;;3.63;1.00;;;;;;;;;;10277305;28;20037;-63
2021/09/24 09:09:32;;;;;;;4.03;1.13;;;;;;;;;;10273473;28;20034;-65
2021/09/24 09:14:30;;;;;;;6.85;2.08;;;;;;;;;;10265337;28;20718;-63
2021/09/24 09:19:27;;;;;;;3.63;2.30;;;;;;;;;;10266753;28;20032;-64
2021/09/24 09:24:26;;;;;;;8.37;2.50;;;;;;;;;;10263333;28;20049;-64
2021/09/24 09:29:23;;;;;;;5.50;2.17;;;;;;;;;;10270027;28;20313;-65
2021/09/24 09:34:35;;;;;;;8.33;1.47;;;;;;;;;;10258748;28;20548;-64
2021/09/24 09:39:33;;;;;;;3.80;1.50;;;;;;;;;;10263127;28;20045;-64
2021/09/24 09:44:32;;;;;;;6.33;1.87;;;;;;;;;;10276695;28;20032;-64
2021/09/24 09:49:29;;;;;;;3.22;1.60;;;;;;;;;;10269121;28;20514;-63
2021/09/24 09:54:29;;;;;;;8.25;2.60;;;;;;;;;;10265494;28;20060;-65
2021/09/24 09:59:27;;;;;;;16.48;4.38;;;;;;;;;;10264940;28;20026;-64
2021/09/24 10:04:35;;;;;;;7.53;2.10;;;;;;;;;;10262440;28;20663;-65
2021/09/24 10:09:34;;;;;;;10.25;1.90;;;;;;;;;;10256172;28;20045;-63
2021/09/24 10:14:32;;;;;;;4.30;2.72;;;;;;;;;;10261255;28;20522;-67
2021/09/24 10:19:29;;;;;;;7.97;2.70;;;;;;;;;;10268360;28;20174;-64
2021/09/24 10:24:27;;;;;;;10.03;3.20;;;;;;;;;;10267350;28;20483;-64
2021/09/24 10:29:29;;;;;;;44.70;9.33;;;;;;;;;;10262063;28;20296;-67
2021/09/24 10:34:30;;;;;;;5.40;2.72;;;;;;;;;;10261022;28;20056;-65
2021/09/24 10:39:33;;;;;;;8.38;2.72;;;;;;;;;;10262949;28;20487;-65
2021/09/24 10:44:31;;;;;;;3.47;2.15;;;;;;;;;;10271002;28;20057;-65
2021/09/24 10:49:29;;;;;;;11.13;4.57;;;;;;;;;;10233284;28;20080;-67
2021/09/24 10:54:26;;;;;;;6.60;2.33;;;;;;;;;;10215222;28;20024;-66
2021/09/24 10:59:25;;;;;;;11.43;2.07;;;;;;;;;;10241966;28;20284;-65
2021/09/24 11:04:42;;;;;;;5.10;2.50;;;;;;;;;;10244587;28;20076;-64
2021/09/24 11:09:50;;;;;;;6.18;1.92;;;;;;;;;;10245991;28;20208;-64
2021/09/24 11:15:03;;;;;;;2.03;1.17;;;;;;;;;;10249687;28;20029;-64
2021/09/24 11:20:21;;;;;;;3.10;1.15;;;;;;;;;;10254027;28;20060;-64
2021/09/24 11:25:18;;;;;;;11.18;2.60;;;;;;;;;;10268106;28;20068;-62
2021/09/24 11:30:19;;;;;;;9.80;2.53;;;;;;;;;;10246335;28;20125;-64
2021/09/24 11:35:20;;;;;;;2.83;1.08;;;;;;;;;;10275267;28;20045;-64
2021/09/24 11:40:20;;;;;;;10.98;2.78;;;;;;;;;;10258314;28;20399;-63
2021/09/24 11:45:21;;;;;;;3.65;2.45;;;;;;;;;;10245561;28;20065;-64
2021/09/24 11:50:19;;;;;;;16.85;2.25;;;;;;;;;;10257653;28;20052;-65
2021/09/24 11:55:25;;;;;;;6.33;2.77;;;;;;;;;;10252587;28;20047;-64
2021/09/24 12:00:24;;;;;;;7.60;3.45;;;;;;;;;;10273178;28;20788;-65
2021/09/24 12:05:22;;;;;;;7.72;2.70;;;;;;;;;;10270813;28;20037;-67
2021/09/24 12:10:25;;;;;;;6.80;2.80;;;;;;;;;;10265944;28;20054;-66
2021/09/24 12:15:23;;;;;;;4.38;2.35;;;;;;;;;;10245648;28;20045;-65
2021/09/24 12:20:24;;;;;;;7.03;1.75;;;;;;;;;;10269783;28;20068;-66
2021/09/24 12:25:22;;;;;;;4.47;2.75;;;;;;;;;;10274511;28;20499;-66
2021/09/24 12:30:20;;;;;;;7.67;2.07;;;;;;;;;;10252644;28;20408;-65
2021/09/24 12:35:20;;;;;;;4.43;1.60;;;;;;;;;;10246343;28;20037;-66
2021/09/24 12:40:18;;;;;;;3.30;1.63;;;;;;;;;;10254375;28;20059;-67
2021/09/24 12:45:22;;;;;;;4.55;1.30;;;;;;;;;;10264991;28;20046;-65
2021/09/24 12:50:20;;;;;;;3.83;1.88;;;;;;;;;;10255784;28;20037;-65
2021/09/24 12:55:18;;;;;;;3.58;1.40;;;;;;;;;;10247842;28;20037;-63
2021/09/24 13:00:15;;;;;;;3.28;1.83;;;;;;;;;;10269008;28;20055;-65
2021/09/24 13:05:14;;;;;;;1.93;1.23;;;;;;;;;;10243889;28;20038;-66
2021/09/24 13:10:15;;;;;;;1.63;1.27;;;;;;;;;;10250910;28;20073;-65
2021/09/24 13:15:15;;;;;;;5.25;1.60;;;;;;;;;;10262958;28;20068;-64
2021/09/24 13:20:13;;;;;;;4.03;1.40;;;;;;;;;;10268260;28;20068;-65
2021/09/24 13:25:12;;;;;;;3.53;1.58;;;;;;;;;;10270139;28;21274;-65
2021/09/24 13:30:09;;;;;;;2.58;1.40;;;;;;;;;;10265009;28;20789;-66
2021/09/24 13:35:07;;;;;;;1.90;1.00;;;;;;;;;;10268522;28;20088;-65
2021/09/24 13:40:06;;;;;;;6.25;1.80;;;;;;;;;;10233038;28;20121;-64
2021/09/24 13:45:07;;;;;;;5.88;1.42;;;;;;;;;;10267858;28;20033;-65
2021/09/24 13:50:05;;;;;;;3.95;1.17;;;;;;;;;;10230943;28;20132;-63
2021/09/24 13:55:03;;;;;;;0.65;0.65;;;;;;;;;;10248811;28;20350;-68
2021/09/24 14:00:01;;;;;;;4.90;1.02;;;;;;;;;;10239762;28;20034;-66
2021/09/24 14:04:58;;;;;;;2.80;1.40;;;;;;;;;;10258671;28;20565;-65
2021/09/24 14:09:55;;;;;;;3.37;1.17;;;;;;;;;;10263361;28;20276;-68
2021/09/24 14:14:53;;;;;;;1.70;1.20;;;;;;;;;;10268284;28;20042;-66
2021/09/24 14:19:50;;;;;;;1.97;1.03;;;;;;;;;;10271172;28;20636;-65
2021/09/24 14:24:48;;;;;;;2.17;0.90;;;;;;;;;;10267850;28;20120;-66
2021/09/24 14:29:45;;;;;;;1.73;0.90;;;;;;;;;;10265262;28;20065;-67
2021/09/24 14:34:43;;;;;;;1.17;0.70;;;;;;;;;;10260739;28;20040;-64
2021/09/24 14:39:40;;;;;;;3.33;1.20;;;;;;;;;;10274262;28;20038;-66
2021/09/24 14:44:37;;;;;;;1.63;1.13;;;;;;;;;;10250650;28;20030;-66
2021/09/24 14:49:35;;;;;;;2.33;1.10;;;;;;;;;;10239526;28;20056;-66
2021/09/24 14:54:32;;;;;;;2.80;1.70;;;;;;;;;;10245571;28;20026;-65
2021/09/24 14:59:29;;;;;;;1.83;1.27;;;;;;;;;;10249303;28;20047;-63
2021/09/24 15:04:27;;;;;;;2.30;1.30;;;;;;;;;;10266172;28;20026;-65
2021/09/24 15:09:24;;;;;;;2.33;1.57;;;;;;;;;;10263147;28;20096;-69
2021/09/24 15:14:22;;;;;;;2.47;1.10;;;;;;;;;;10265715;28;20492;-66
2021/09/24 15:19:19;;;;;;;1.50;1.10;;;;;;;;;;10274774;28;20120;-64
2021/09/24 15:24:16;;;;;;;1.43;0.97;;;;;;;;;;10289488;28;20048;-63
2021/09/24 15:29:14;;;;;;;2.10;1.30;;;;;;;;;;10288817;28;20045;-64
2021/09/24 15:34:12;;;;;;;0.93;0.93;;;;;;;;;;10269220;28;20040;-63
2021/09/24 15:39:09;;;;;;;2.03;1.00;;;;;;;;;;10281897;28;20088;-65
2021/09/24 15:44:06;;;;;;;2.37;1.07;;;;;;;;;;10289061;28;20080;-63
2021/09/24 15:49:04;;;;;;;1.50;0.80;;;;;;;;;;10287830;28;20144;-64
2021/09/24 15:54:02;;;;;;;2.58;0.88;;;;;;;;;;10290842;28;20042;-65
2021/09/24 15:59:00;;;;;;;2.40;1.00;;;;;;;;;;10274107;28;20030;-63
2021/09/24 16:04:00;;;;;;;1.70;1.08;;;;;;;;;;10277811;28;20377;-64
2021/09/24 16:08:57;;;;;;;0.85;0.52;;;;;;;;;;10288016;28;20068;-63
2021/09/24 16:13:55;;;;;;;1.17;0.93;;;;;;;;;;10283312;28;20124;-64
2021/09/24 16:18:52;;;;;;;3.80;1.93;;;;;;;;;;10297434;28;20045;-63
2021/09/24 16:23:50;;;;;;;3.20;1.53;;;;;;;;;;10279527;28;20038;-64
2021/09/24 16:28:47;;;;;;;6.10;2.93;;;;;;;;;;10291857;28;20049;-63
2021/09/24 16:33:45;;;;;;;5.10;1.80;;;;;;;;;;10275990;28;20597;-65
2021/09/24 16:38:42;;;;;;;11.77;4.23;;;;;;;;;;10288426;28;20033;-62
2021/09/24 16:43:40;;;;;;;7.27;2.67;;;;;;;;;;10294505;28;20049;-67
2021/09/24 16:48:37;;;;;;;4.90;2.40;;;;;;;;;;10296114;28;20461;-65
2021/09/24 16:53:34;;;;;;;8.87;3.63;;;;;;;;;;10288204;28;20037;-62
2021/09/24 16:58:32;;;;;;;1.93;0.87;;;;;;;;;;10276124;28;20423;-67
2021/09/24 17:03:29;;;;;;;1.67;1.03;;;;;;;;;;10268534;28;20120;-64
2021/09/24 17:08:27;;;;;;;2.93;1.13;;;;;;;;;;10276777;28;20049;-64
2021/09/24 17:13:25;;;;;;;2.47;1.10;;;;;;;;;;10290537;28;20061;-64
2021/09/24 17:18:22;;;;;;;2.17;1.23;;;;;;;;;;10287473;28;20033;-64
2021/09/24 17:23:19;;;;;;;2.67;1.37;;;;;;;;;;10292788;28;20038;-64
2021/09/24 17:28:17;;;;;;;2.80;1.03;;;;;;;;;;10265633;28;20087;-66
2021/09/24 17:33:15;;;;;;;4.15;1.85;;;;;;;;;;10289243;28;20137;-64
2021/09/24 17:38:12;;;;;;;6.47;1.45;;;;;;;;;;10283661;28;20499;-62
2021/09/24 17:43:10;;;;;;;2.03;1.20;;;;;;;;;;10299741;28;20044;-63
2021/09/24 17:48:07;;;;;;;2.20;1.50;;;;;;;;;;10285530;28;20299;-62
2021/09/24 17:53:05;;;;;;;1.43;0.70;;;;;;;;;;10267635;28;20052;-66
2021/09/24 17:58:02;;;;;;;0.97;0.93;;;;;;;;;;10262447;28;20041;-63
2021/09/24 18:02:59;;;;;;;2.10;1.17;;;;;;;;;;10278245;28;20531;-63
2021/09/24 18:07:57;;;;;;;1.63;1.53;;;;;;;;;;10270477;28;20041;-64
2021/09/24 18:12:55;;;;;;;1.90;1.10;;;;;;;;;;10284603;28;20578;-65
2021/09/24 18:17:53;;;;;;;2.30;1.60;;;;;;;;;;10292597;28;20378;-62
2021/09/24 18:22:51;;;;;;;3.80;2.55;;;;;;;;;;10288290;28;20704;-63
2021/09/24 18:27:49;;;;;;;3.17;2.00;;;;;;;;;;10288705;28;20554;-63
2021/09/24 18:32:46;;;;;;;2.78;2.40;;;;;;;;;;10283501;28;20396;-64
2021/09/24 18:37:44;;;;;;;4.00;2.90;;;;;;;;;;10259928;28;20048;-64
2021/09/24 18:42:42;;;;;;;2.28;1.83;;;;;;;;;;10291670;28;20152;-64
2021/09/24 18:47:39;;;;;;;1.83;1.53;;;;;;;;;;10286465;28;20514;-62
2021/09/24 18:52:37;;;;;;;1.77;1.53;;;;;;;;;;10291081;28;20407;-62
2021/09/24 18:57:34;;;;;;;5.93;2.27;;;;;;;;;;10260759;28;20500;-66
2021/09/24 19:02:31;;;;;;;3.60;1.80;;;;;;;;;;10272869;28;20029;-66
2021/09/24 19:07:31;;;;;;;3.05;2.10;;;;;;;;;;10265658;28;20041;-66
2021/09/24 19:12:28;;;;;;;4.38;2.10;;;;;;;;;;10260109;28;20103;-68
2021/09/24 19:17:26;;;;;;;8.07;2.90;;;;;;;;;;10274247;28;20033;-67
2021/09/24 19:22:24;;;;;;;6.77;2.10;;;;;;;;;;10268676;28;20860;-67
2021/09/24 19:27:21;;;;;;;6.90;2.42;;;;;;;;;;10255261;28;20132;-68
2021/09/24 19:32:19;;;;;;;3.07;1.83;;;;;;;;;;10251873;28;20044;-66
2021/09/24 19:37:18;;;;;;;2.07;1.23;;;;;;;;;;10261413;28;20044;-65
2021/09/24 19:42:15;;;;;;;4.40;1.40;;;;;;;;;;10252858;28;20430;-67
2021/09/24 19:47:12;;;;;;;1.93;1.40;;;;;;;;;;10266984;28;20220;-64
2021/09/24 19:52:10;;;;;;;2.20;1.40;;;;;;;;;;10246467;28;20084;-66
2021/09/24 19:57:07;;;;;;;5.70;2.17;;;;;;;;;;10269975;28;20022;-65
2021/09/24 20:02:05;;;;;;;11.20;5.77;;;;;;;;;;10262313;28;20032;-65
2021/09/24 20:07:02;;;;;;;22.20;9.93;;;;;;;;;;10243828;28;20041;-67
2021/09/24 20:12:00;;;;;;;27.97;10.10;;;;;;;;;;10271161;28;20032;-66
2021/09/24 20:16:57;;;;;;;9.10;6.20;;;;;;;;;;10271546;28;20033;-65
2021/09/24 20:21:55;;;;;;;5.57;4.10;;;;;;;;;;10235088;28;20511;-66
2021/09/24 20:26:54;;;;;;;4.90;3.27;;;;;;;;;;10231007;28;20029;-63
2021/09/24 20:31:51;;;;;;;5.05;3.05;;;;;;;;;;10225231;28;20407;-67
2021/09/24 20:36:50;;;;;;;7.53;3.30;;;;;;;;;;10226492;28;20045;-65
2021/09/24 20:41:49;;;;;;;4.35;2.10;;;;;;;;;;10229452;28;20085;-66
2021/09/24 20:46:46;;;;;;;6.60;3.13;;;;;;;;;;10234244;28;20070;-66
2021/09/24 20:51:44;;;;;;;4.83;2.50;;;;;;;;;;10221915;28;20121;-66
2021/09/24 20:56:41;;;;;;;5.90;3.10;;;;;;;;;;10211974;28;20498;-65
2021/09/24 21:01:39;;;;;;;3.13;1.73;;;;;;;;;;10218474;28;20037;-68
2021/09/24 21:06:39;;;;;;;2.93;1.60;;;;;;;;;;10227463;28;20095;-66
2021/09/24 21:11:36;;;;;;;7.63;1.65;;;;;;;;;;10227834;28;20042;-65
2021/09/24 21:16:33;;;;;;;1.97;1.10;;;;;;;;;;10239421;28;20031;-66
2021/09/24 21:21:31;;;;;;;2.83;1.63;;;;;;;;;;10241333;28;20104;-65
2021/09/24 21:26:28;;;;;;;3.27;1.60;;;;;;;;;;10243551;28;20619;-65
2021/09/24 21:31:26;;;;;;;7.33;1.83;;;;;;;;;;10219079;28;20041;-66
2021/09/24 21:36:23;;;;;;;1.93;1.27;;;;;;;;;;10224708;28;20124;-67
2021/09/24 21:41:20;;;;;;;2.80;1.33;;;;;;;;;;10230703;28;20046;-66
2021/09/24 21:46:18;;;;;;;2.20;1.50;;;;;;;;;;10240616;28;20037;-65
2021/09/24 21:51:15;;;;;;;2.67;1.03;;;;;;;;;;10231736;28;20045;-66
2021/09/24 21:56:13;;;;;;;0.40;0.40;;;;;;;;;;10233502;28;20035;-66
2021/09/24 22:01:10;;;;;;;4.13;1.07;;;;;;;;;;10207105;28;20034;-68
2021/09/24 22:06:08;;;;;;;3.47;0.77;;;;;;;;;;10218584;28;20523;-65
2021/09/24 22:11:05;;;;;;;1.93;1.10;;;;;;;;;;10220143;28;20124;-64
2021/09/24 22:16:03;;;;;;;1.60;1.17;;;;;;;;;;10225904;28;20158;-66
2021/09/24 22:21:00;;;;;;;8.80;3.22;;;;;;;;;;10223943;28;20026;-65
2021/09/24 22:25:58;;;;;;;7.38;3.30;;;;;;;;;;10229900;28;20091;-67
2021/09/24 22:30:56;;;;;;;8.67;2.47;;;;;;;;;;10224836;28;20132;-70
2021/09/24 22:35:53;;;;;;;8.10;3.40;;;;;;;;;;10218091;28;20046;-66
2021/09/24 22:40:50;;;;;;;6.40;2.97;;;;;;;;;;10233173;28;20041;-67
2021/09/24 22:45:48;;;;;;;5.20;2.40;;;;;;;;;;10237326;28;20589;-66
2021/09/24 22:50:45;;;;;;;11.40;4.50;;;;;;;;;;10230966;28;20038;-66
2021/09/24 22:55:42;;;;;;;10.00;3.73;;;;;;;;;;10230642;28;20042;-65
2021/09/24 23:00:40;;;;;;;7.13;3.50;;;;;;;;;;10224514;28;20041;-65
2021/09/24 23:05:37;;;;;;;7.60;2.27;;;;;;;;;;10227932;28;20045;-66
2021/09/24 23:10:34;;;;;;;7.20;3.67;;;;;;;;;;10218839;28;20057;-66
2021/09/24 23:15:33;;;;;;;15.10;4.13;;;;;;;;;;10236258;28;20030;-65
2021/09/24 23:20:31;;;;;;;0.63;0.40;;;;;;;;;;10222362;28;20061;-67
2021/09/24 23:25:28;;;;;;;1.70;0.83;;;;;;;;;;10237048;28;20041;-65
2021/09/24 23:30:25;;;;;;;1.63;0.47;;;;;;;;;;10245084;28;20056;-66
2021/09/24 23:35:23;;;;;;;2.50;0.87;;;;;;;;;;10261852;28;20064;-66
2021/09/24 23:40:20;;;;;;;1.00;0.67;;;;;;;;;;10262905;28;20120;-66
2021/09/24 23:45:18;;;;;;;2.20;1.03;;;;;;;;;;10244290;28;20041;-67
2021/09/24 23:50:15;;;;;;;0.77;0.57;;;;;;;;;;10246684;28;20049;-66
2021/09/24 23:55:20;;;;;;;0.90;0.60;;;;;;;;;;10264413;28;20535;-65
